sensor_id;sensor_type;location;lat;lon;timestamp;temperature;humidity
67157;SHT31;54086;50.126;8.710;2022-09-24T00:00:34;12.71;82.50
67157;SHT31;54086;50.126;8.710;2022-09-24T00:03:00;12.74;82.48
67157;SHT31;54086;50.126;8.710;2022-09-24T00:05:25;12.76;82.25
67157;SHT31;54086;50.126;8.710;2022-09-24T00:07:50;12.65;82.45
67157;SHT31;54086;50.126;8.710;2022-09-24T00:10:16;12.78;82.51
67157;SHT31;54086;50.126;8.710;2022-09-24T00:12:41;12.54;83.00
67157;SHT31;54086;50.126;8.710;2022-09-24T00:15:07;12.63;82.86
67157;SHT31;54086;50.126;8.710;2022-09-24T00:17:32;12.63;82.99
67157;SHT31;54086;50.126;8.710;2022-09-24T00:19:58;12.57;83.28
67157;SHT31;54086;50.126;8.710;2022-09-24T00:22:23;12.58;83.15
67157;SHT31;54086;50.126;8.710;2022-09-24T00:24:48;12.53;83.38
67157;SHT31;54086;50.126;8.710;2022-09-24T00:27:32;12.47;83.50
67157;SHT31;54086;50.126;8.710;2022-09-24T00:29:58;12.58;83.33
67157;SHT31;54086;50.126;8.710;2022-09-24T00:32:23;12.61;83.28
67157;SHT31;54086;50.126;8.710;2022-09-24T00:34:49;12.56;83.28
67157;SHT31;54086;50.126;8.710;2022-09-24T00:37:18;12.54;83.23
67157;SHT31;54086;50.126;8.710;2022-09-24T00:39:44;12.53;83.55
67157;SHT31;54086;50.126;8.710;2022-09-24T00:42:11;12.57;83.70
67157;SHT31;54086;50.126;8.710;2022-09-24T00:44:51;12.44;83.92
67157;SHT31;54086;50.126;8.710;2022-09-24T00:47:38;12.47;83.78
67157;SHT31;54086;50.126;8.710;2022-09-24T00:50:24;12.47;83.74
67157;SHT31;54086;50.126;8.710;2022-09-24T00:52:56;12.47;83.82
67157;SHT31;54086;50.126;8.710;2022-09-24T00:55:23;12.47;83.81
67157;SHT31;54086;50.126;8.710;2022-09-24T00:57:52;12.41;84.10
67157;SHT31;54086;50.126;8.710;2022-09-24T01:00:20;12.30;84.46
67157;SHT31;54086;50.126;8.710;2022-09-24T01:02:48;12.33;84.32
67157;SHT31;54086;50.126;8.710;2022-09-24T01:05:14;12.25;84.52
67157;SHT31;54086;50.126;8.710;2022-09-24T01:07:40;12.25;84.60
67157;SHT31;54086;50.126;8.710;2022-09-24T01:10:05;12.26;84.66
67157;SHT31;54086;50.126;8.710;2022-09-24T01:12:53;12.25;84.88
67157;SHT31;54086;50.126;8.710;2022-09-24T01:15:27;12.25;84.89
67157;SHT31;54086;50.126;8.710;2022-09-24T01:31:56;11.93;86.28
67157;SHT31;54086;50.126;8.710;2022-09-24T01:34:26;11.89;86.34
67157;SHT31;54086;50.126;8.710;2022-09-24T01:36:55;11.85;86.58
67157;SHT31;54086;50.126;8.710;2022-09-24T01:39:21;11.83;86.76
67157;SHT31;54086;50.126;8.710;2022-09-24T01:41:48;11.85;86.63
67157;SHT31;54086;50.126;8.710;2022-09-24T01:44:14;11.78;86.72
67157;SHT31;54086;50.126;8.710;2022-09-24T01:46:42;11.78;86.74
67157;SHT31;54086;50.126;8.710;2022-09-24T01:49:08;11.72;86.99
67157;SHT31;54086;50.126;8.710;2022-09-24T01:51:39;11.64;87.25
67157;SHT31;54086;50.126;8.710;2022-09-24T01:54:15;11.68;87.17
67157;SHT31;54086;50.126;8.710;2022-09-24T01:57:04;11.61;87.18
67157;SHT31;54086;50.126;8.710;2022-09-24T01:59:40;11.64;87.23
67157;SHT31;54086;50.126;8.710;2022-09-24T02:02:18;11.61;87.55
67157;SHT31;54086;50.126;8.710;2022-09-24T02:04:50;11.57;87.42
67157;SHT31;54086;50.126;8.710;2022-09-24T02:07:37;11.62;87.42
67157;SHT31;54086;50.126;8.710;2022-09-24T02:10:05;11.61;87.30
67157;SHT31;54086;50.126;8.710;2022-09-24T02:12:33;11.51;87.55
67157;SHT31;54086;50.126;8.710;2022-09-24T02:15:06;11.45;87.92
67157;SHT31;54086;50.126;8.710;2022-09-24T02:17:36;11.32;88.31
67157;SHT31;54086;50.126;8.710;2022-09-24T02:20:05;11.26;88.70
67157;SHT31;54086;50.126;8.710;2022-09-24T02:22:32;11.26;88.42
67157;SHT31;54086;50.126;8.710;2022-09-24T02:25:00;11.27;88.11
67157;SHT31;54086;50.126;8.710;2022-09-24T02:27:28;11.26;88.31
67157;SHT31;54086;50.126;8.710;2022-09-24T02:29:55;11.16;88.46
67157;SHT31;54086;50.126;8.710;2022-09-24T02:32:22;11.18;88.57
67157;SHT31;54086;50.126;8.710;2022-09-24T02:34:52;11.16;88.53
67157;SHT31;54086;50.126;8.710;2022-09-24T02:37:21;11.20;88.44
67157;SHT31;54086;50.126;8.710;2022-09-24T02:39:47;11.16;88.32
67157;SHT31;54086;50.126;8.710;2022-09-24T02:42:14;11.11;88.63
67157;SHT31;54086;50.126;8.710;2022-09-24T02:44:40;11.07;88.82
67157;SHT31;54086;50.126;8.710;2022-09-24T02:47:06;11.03;88.92
67157;SHT31;54086;50.126;8.710;2022-09-24T02:49:32;11.04;88.94
67157;SHT31;54086;50.126;8.710;2022-09-24T02:51:57;11.01;88.86
67157;SHT31;54086;50.126;8.710;2022-09-24T02:54:23;10.96;89.07
67157;SHT31;54086;50.126;8.710;2022-09-24T02:56:50;10.99;89.01
67157;SHT31;54086;50.126;8.710;2022-09-24T02:59:15;10.97;88.96
67157;SHT31;54086;50.126;8.710;2022-09-24T03:01:41;10.99;88.89
67157;SHT31;54086;50.126;8.710;2022-09-24T03:04:06;10.99;89.06
67157;SHT31;54086;50.126;8.710;2022-09-24T03:06:32;10.97;88.91
67157;SHT31;54086;50.126;8.710;2022-09-24T03:08:58;10.99;88.90
67157;SHT31;54086;50.126;8.710;2022-09-24T03:11:27;10.99;88.98
67157;SHT31;54086;50.126;8.710;2022-09-24T03:13:53;11.03;88.88
67157;SHT31;54086;50.126;8.710;2022-09-24T03:16:19;10.92;89.04
67157;SHT31;54086;50.126;8.710;2022-09-24T03:18:46;10.92;89.08
67157;SHT31;54086;50.126;8.710;2022-09-24T03:21:13;10.81;89.57
67157;SHT31;54086;50.126;8.710;2022-09-24T03:23:39;10.83;89.57
67157;SHT31;54086;50.126;8.710;2022-09-24T03:26:06;10.92;89.23
67157;SHT31;54086;50.126;8.710;2022-09-24T03:28:31;10.86;89.31
67157;SHT31;54086;50.126;8.710;2022-09-24T03:30:56;10.92;89.30
67157;SHT31;54086;50.126;8.710;2022-09-24T03:33:26;10.84;89.29
67157;SHT31;54086;50.126;8.710;2022-09-24T03:36:12;10.83;89.37
67157;SHT31;54086;50.126;8.710;2022-09-24T03:38:39;10.83;89.48
67157;SHT31;54086;50.126;8.710;2022-09-24T03:41:07;10.81;89.56
67157;SHT31;54086;50.126;8.710;2022-09-24T03:43:32;10.84;89.30
67157;SHT31;54086;50.126;8.710;2022-09-24T03:45:58;10.89;88.61
67157;SHT31;54086;50.126;8.710;2022-09-24T03:48:24;10.92;88.11
67157;SHT31;54086;50.126;8.710;2022-09-24T03:50:50;10.93;88.25
67157;SHT31;54086;50.126;8.710;2022-09-24T03:53:17;10.86;88.90
67157;SHT31;54086;50.126;8.710;2022-09-24T03:55:44;10.79;89.41
67157;SHT31;54086;50.126;8.710;2022-09-24T03:58:11;10.80;89.29
67157;SHT31;54086;50.126;8.710;2022-09-24T04:00:37;10.70;89.44
67157;SHT31;54086;50.126;8.710;2022-09-24T04:03:03;10.66;89.68
67157;SHT31;54086;50.126;8.710;2022-09-24T04:05:28;10.60;89.79
67157;SHT31;54086;50.126;8.710;2022-09-24T04:07:55;10.68;89.87
67157;SHT31;54086;50.126;8.710;2022-09-24T04:10:20;10.68;89.77
67157;SHT31;54086;50.126;8.710;2022-09-24T04:12:47;10.56;90.01
67157;SHT31;54086;50.126;8.710;2022-09-24T04:15:12;10.62;90.04
67157;SHT31;54086;50.126;8.710;2022-09-24T04:17:40;10.66;89.87
67157;SHT31;54086;50.126;8.710;2022-09-24T04:20:06;10.65;89.71
67157;SHT31;54086;50.126;8.710;2022-09-24T04:22:33;10.62;89.72
67157;SHT31;54086;50.126;8.710;2022-09-24T04:24:58;10.65;89.79
67157;SHT31;54086;50.126;8.710;2022-09-24T04:27:24;10.63;89.58
67157;SHT31;54086;50.126;8.710;2022-09-24T04:29:50;10.55;89.43
67157;SHT31;54086;50.126;8.710;2022-09-24T04:32:15;10.49;89.45
67157;SHT31;54086;50.126;8.710;2022-09-24T04:34:40;10.39;89.50
67157;SHT31;54086;50.126;8.710;2022-09-24T04:37:06;10.44;89.41
67157;SHT31;54086;50.126;8.710;2022-09-24T04:39:33;10.44;89.22
67157;SHT31;54086;50.126;8.710;2022-09-24T04:41:58;10.39;89.25
67157;SHT31;54086;50.126;8.710;2022-09-24T04:44:24;10.38;89.33
67157;SHT31;54086;50.126;8.710;2022-09-24T04:46:49;10.45;89.19
67157;SHT31;54086;50.126;8.710;2022-09-24T04:49:15;10.44;89.15
67157;SHT31;54086;50.126;8.710;2022-09-24T04:51:40;10.38;89.27
67157;SHT31;54086;50.126;8.710;2022-09-24T04:54:08;10.31;89.67
67157;SHT31;54086;50.126;8.710;2022-09-24T04:56:33;10.27;89.84
67157;SHT31;54086;50.126;8.710;2022-09-24T04:58:58;10.29;89.80
67157;SHT31;54086;50.126;8.710;2022-09-24T05:01:24;10.24;89.96
67157;SHT31;54086;50.126;8.710;2022-09-24T05:03:50;10.29;89.85
67157;SHT31;54086;50.126;8.710;2022-09-24T05:06:15;10.32;89.84
67157;SHT31;54086;50.126;8.710;2022-09-24T05:08:40;10.42;89.41
67157;SHT31;54086;50.126;8.710;2022-09-24T05:11:07;10.42;89.47
67157;SHT31;54086;50.126;8.710;2022-09-24T05:13:32;10.46;89.60
67157;SHT31;54086;50.126;8.710;2022-09-24T05:15:59;10.58;89.13
67157;SHT31;54086;50.126;8.710;2022-09-24T05:18:25;10.53;89.20
67157;SHT31;54086;50.126;8.710;2022-09-24T05:20:51;10.60;89.16
67157;SHT31;54086;50.126;8.710;2022-09-24T05:23:16;10.48;89.45
67157;SHT31;54086;50.126;8.710;2022-09-24T05:25:42;10.58;89.53
67157;SHT31;54086;50.126;8.710;2022-09-24T05:28:26;10.56;89.45
67157;SHT31;54086;50.126;8.710;2022-09-24T05:30:56;10.58;89.43
67157;SHT31;54086;50.126;8.710;2022-09-24T05:33:21;10.63;89.13
67157;SHT31;54086;50.126;8.710;2022-09-24T05:35:55;10.55;89.36
67157;SHT31;54086;50.126;8.710;2022-09-24T05:38:21;10.58;89.51
67157;SHT31;54086;50.126;8.710;2022-09-24T05:40:47;10.49;89.71
67157;SHT31;54086;50.126;8.710;2022-09-24T05:43:13;10.53;89.52
67157;SHT31;54086;50.126;8.710;2022-09-24T05:45:38;10.62;89.21
67157;SHT31;54086;50.126;8.710;2022-09-24T05:48:04;10.56;89.16
67157;SHT31;54086;50.126;8.710;2022-09-24T05:50:30;10.55;89.43
67157;SHT31;54086;50.126;8.710;2022-09-24T05:53:02;10.46;89.55
67157;SHT31;54086;50.126;8.710;2022-09-24T05:55:28;10.48;89.55
67157;SHT31;54086;50.126;8.710;2022-09-24T05:57:53;10.44;89.48
67157;SHT31;54086;50.126;8.710;2022-09-24T06:00:19;10.48;89.39
67157;SHT31;54086;50.126;8.710;2022-09-24T06:02:44;10.49;89.48
67157;SHT31;54086;50.126;8.710;2022-09-24T06:05:10;10.50;89.35
67157;SHT31;54086;50.126;8.710;2022-09-24T06:07:36;10.59;89.13
67157;SHT31;54086;50.126;8.710;2022-09-24T06:10:03;10.65;89.09
67157;SHT31;54086;50.126;8.710;2022-09-24T06:12:29;10.77;88.50
67157;SHT31;54086;50.126;8.710;2022-09-24T06:14:55;10.87;88.27
67157;SHT31;54086;50.126;8.710;2022-09-24T06:17:20;10.77;88.49
67157;SHT31;54086;50.126;8.710;2022-09-24T06:19:46;10.87;88.48
67157;SHT31;54086;50.126;8.710;2022-09-24T06:22:12;10.81;88.60
67157;SHT31;54086;50.126;8.710;2022-09-24T06:24:37;10.87;88.49
67157;SHT31;54086;50.126;8.710;2022-09-24T06:27:03;11.00;88.08
67157;SHT31;54086;50.126;8.710;2022-09-24T06:29:29;11.03;88.01
67157;SHT31;54086;50.126;8.710;2022-09-24T06:31:54;11.11;87.65
67157;SHT31;54086;50.126;8.710;2022-09-24T06:34:19;11.10;87.79
67157;SHT31;54086;50.126;8.710;2022-09-24T06:36:45;11.16;87.61
67157;SHT31;54086;50.126;8.710;2022-09-24T06:39:10;11.28;87.12
67157;SHT31;54086;50.126;8.710;2022-09-24T06:41:36;11.20;87.14
67157;SHT31;54086;50.126;8.710;2022-09-24T06:44:01;11.31;86.62
67157;SHT31;54086;50.126;8.710;2022-09-24T06:46:26;11.38;86.22
67157;SHT31;54086;50.126;8.710;2022-09-24T06:48:52;11.30;86.33
67157;SHT31;54086;50.126;8.710;2022-09-24T06:51:20;11.35;86.29
67157;SHT31;54086;50.126;8.710;2022-09-24T06:53:49;11.39;85.93
67157;SHT31;54086;50.126;8.710;2022-09-24T06:56:15;11.44;85.87
67157;SHT31;54086;50.126;8.710;2022-09-24T06:58:40;11.39;86.15
67157;SHT31;54086;50.126;8.710;2022-09-24T07:01:06;11.42;85.98
67157;SHT31;54086;50.126;8.710;2022-09-24T07:03:32;11.54;85.68
67157;SHT31;54086;50.126;8.710;2022-09-24T07:06:00;11.62;85.74
67157;SHT31;54086;50.126;8.710;2022-09-24T07:08:26;11.72;85.26
67157;SHT31;54086;50.126;8.710;2022-09-24T07:10:51;11.78;85.05
67157;SHT31;54086;50.126;8.710;2022-09-24T07:13:18;11.85;84.97
67157;SHT31;54086;50.126;8.710;2022-09-24T07:15:45;11.69;85.32
67157;SHT31;54086;50.126;8.710;2022-09-24T07:18:11;11.93;84.86
67157;SHT31;54086;50.126;8.710;2022-09-24T07:20:36;12.00;84.42
67157;SHT31;54086;50.126;8.710;2022-09-24T07:23:06;12.06;84.29
67157;SHT31;54086;50.126;8.710;2022-09-24T07:25:31;12.19;84.00
67157;SHT31;54086;50.126;8.710;2022-09-24T07:28:05;12.19;84.13
67157;SHT31;54086;50.126;8.710;2022-09-24T07:30:32;12.16;84.19
67157;SHT31;54086;50.126;8.710;2022-09-24T07:32:58;12.30;83.98
67157;SHT31;54086;50.126;8.710;2022-09-24T07:35:25;12.73;82.74
67157;SHT31;54086;50.126;8.710;2022-09-24T07:38:00;12.76;82.68
67157;SHT31;54086;50.126;8.710;2022-09-24T07:40:26;13.04;81.53
67157;SHT31;54086;50.126;8.710;2022-09-24T07:42:52;13.18;80.59
67157;SHT31;54086;50.126;8.710;2022-09-24T07:45:19;13.25;80.95
67157;SHT31;54086;50.126;8.710;2022-09-24T07:47:45;13.32;80.40
67157;SHT31;54086;50.126;8.710;2022-09-24T07:50:10;13.73;79.14
67157;SHT31;54086;50.126;8.710;2022-09-24T07:52:37;14.22;78.26
67157;SHT31;54086;50.126;8.710;2022-09-24T07:55:04;14.31;76.90
67157;SHT31;54086;50.126;8.710;2022-09-24T07:57:29;14.14;77.59
67157;SHT31;54086;50.126;8.710;2022-09-24T07:59:55;13.86;78.12
67157;SHT31;54086;50.126;8.710;2022-09-24T08:02:20;14.51;76.20
67157;SHT31;54086;50.126;8.710;2022-09-24T08:04:46;14.31;76.28
67157;SHT31;54086;50.126;8.710;2022-09-24T08:07:12;14.87;74.95
67157;SHT31;54086;50.126;8.710;2022-09-24T08:09:38;14.76;75.22
67157;SHT31;54086;50.126;8.710;2022-09-24T08:12:04;14.46;75.99
67157;SHT31;54086;50.126;8.710;2022-09-24T08:14:30;14.54;76.10
67157;SHT31;54086;50.126;8.710;2022-09-24T08:16:55;14.71;76.17
67157;SHT31;54086;50.126;8.710;2022-09-24T08:19:21;15.44;73.95
67157;SHT31;54086;50.126;8.710;2022-09-24T08:21:46;15.06;74.64
67157;SHT31;54086;50.126;8.710;2022-09-24T08:24:13;14.31;77.01
67157;SHT31;54086;50.126;8.710;2022-09-24T08:26:38;14.41;77.33
67157;SHT31;54086;50.126;8.710;2022-09-24T08:29:03;14.39;77.14
67157;SHT31;54086;50.126;8.710;2022-09-24T08:31:29;14.41;76.90
67157;SHT31;54086;50.126;8.710;2022-09-24T08:33:56;14.22;77.40
67157;SHT31;54086;50.126;8.710;2022-09-24T08:36:22;14.00;78.12
67157;SHT31;54086;50.126;8.710;2022-09-24T08:38:47;14.20;78.09
67157;SHT31;54086;50.126;8.710;2022-09-24T08:44:03;14.03;78.37
67157;SHT31;54086;50.126;8.710;2022-09-24T08:46:43;14.21;77.64
67157;SHT31;54086;50.126;8.710;2022-09-24T08:49:41;15.00;75.56
67157;SHT31;54086;50.126;8.710;2022-09-24T08:55:14;15.86;71.60
67157;SHT31;54086;50.126;8.710;2022-09-24T08:57:49;15.65;72.52
67157;SHT31;54086;50.126;8.710;2022-09-24T09:00:19;16.47;69.70
67157;SHT31;54086;50.126;8.710;2022-09-24T09:03:00;17.08;68.48
67157;SHT31;54086;50.126;8.710;2022-09-24T09:05:46;17.01;68.14
67157;SHT31;54086;50.126;8.710;2022-09-24T09:11:01;16.29;70.21
67157;SHT31;54086;50.126;8.710;2022-09-24T09:13:33;16.03;71.30
67157;SHT31;54086;50.126;8.710;2022-09-24T09:16:08;16.06;71.45
67157;SHT31;54086;50.126;8.710;2022-09-24T09:18:41;15.68;72.12
67157;SHT31;54086;50.126;8.710;2022-09-24T09:21:24;15.71;72.78
67157;SHT31;54086;50.126;8.710;2022-09-24T09:23:51;16.22;71.19
67157;SHT31;54086;50.126;8.710;2022-09-24T09:26:18;16.37;70.71
67157;SHT31;54086;50.126;8.710;2022-09-24T09:28:45;16.98;69.68
67157;SHT31;54086;50.126;8.710;2022-09-24T09:42:30;17.11;68.85
67157;SHT31;54086;50.126;8.710;2022-09-24T09:45:05;17.31;68.05
67157;SHT31;54086;50.126;8.710;2022-09-24T09:47:41;17.28;67.46
67157;SHT31;54086;50.126;8.710;2022-09-24T09:52:52;17.22;67.61
67157;SHT31;54086;50.126;8.710;2022-09-24T09:55:28;17.82;66.28
67157;SHT31;54086;50.126;8.710;2022-09-24T09:58:10;18.56;63.60
67157;SHT31;54086;50.126;8.710;2022-09-24T10:00:40;17.46;66.65
67157;SHT31;54086;50.126;8.710;2022-09-24T10:03:21;16.83;68.30
67157;SHT31;54086;50.126;8.710;2022-09-24T10:06:01;16.74;69.40
67157;SHT31;54086;50.126;8.710;2022-09-24T10:08:28;17.96;65.98
67157;SHT31;54086;50.126;8.710;2022-09-24T10:10:55;18.69;63.87
67157;SHT31;54086;50.126;8.710;2022-09-24T10:13:21;19.21;62.40
67157;SHT31;54086;50.126;8.710;2022-09-24T10:15:51;19.02;62.20
67157;SHT31;54086;50.126;8.710;2022-09-24T10:20:51;18.77;63.42
67157;SHT31;54086;50.126;8.710;2022-09-24T10:23:22;19.47;60.79
67157;SHT31;54086;50.126;8.710;2022-09-24T10:25:58;18.68;62.50
67157;SHT31;54086;50.126;8.710;2022-09-24T10:28:24;19.16;62.15
67157;SHT31;54086;50.126;8.710;2022-09-24T10:31:33;19.09;61.96
67157;SHT31;54086;50.126;8.710;2022-09-24T10:33:58;18.92;62.19
67157;SHT31;54086;50.126;8.710;2022-09-24T10:36:27;18.35;63.48
67157;SHT31;54086;50.126;8.710;2022-09-24T10:41:28;19.03;61.96
67157;SHT31;54086;50.126;8.710;2022-09-24T10:43:56;18.51;62.90
67157;SHT31;54086;50.126;8.710;2022-09-24T10:55:14;18.99;60.18
67157;SHT31;54086;50.126;8.710;2022-09-24T11:00:22;19.23;60.79
67157;SHT31;54086;50.126;8.710;2022-09-24T11:03:24;19.43;59.97
67157;SHT31;54086;50.126;8.710;2022-09-24T11:05:57;19.60;59.40
67157;SHT31;54086;50.126;8.710;2022-09-24T11:22:14;18.86;61.17
67157;SHT31;54086;50.126;8.710;2022-09-24T11:31:16;18.13;63.52
67157;SHT31;54086;50.126;8.710;2022-09-24T11:33:34;18.27;62.68
67157;SHT31;54086;50.126;8.710;2022-09-24T11:41:36;19.28;61.05
67157;SHT31;54086;50.126;8.710;2022-09-24T11:50:22;20.04;57.29
67157;SHT31;54086;50.126;8.710;2022-09-24T11:52:56;19.77;58.52
67157;SHT31;54086;50.126;8.710;2022-09-24T11:55:38;19.86;58.66
67157;SHT31;54086;50.126;8.710;2022-09-24T11:58:13;20.06;58.25
67157;SHT31;54086;50.126;8.710;2022-09-24T12:06:08;19.19;59.83
67157;SHT31;54086;50.126;8.710;2022-09-24T12:08:39;19.27;59.40
67157;SHT31;54086;50.126;8.710;2022-09-24T12:11:14;19.49;59.07
67157;SHT31;54086;50.126;8.710;2022-09-24T12:13:49;19.24;58.53
67157;SHT31;54086;50.126;8.710;2022-09-24T12:16:19;18.99;58.75
67157;SHT31;54086;50.126;8.710;2022-09-24T12:19:00;18.83;59.28
67157;SHT31;54086;50.126;8.710;2022-09-24T12:21:31;18.72;59.54
67157;SHT31;54086;50.126;8.710;2022-09-24T12:24:01;18.72;59.67
67157;SHT31;54086;50.126;8.710;2022-09-24T12:26:28;18.76;59.53
67157;SHT31;54086;50.126;8.710;2022-09-24T12:31:56;19.43;57.81
67157;SHT31;54086;50.126;8.710;2022-09-24T12:37:14;19.49;57.46
67157;SHT31;54086;50.126;8.710;2022-09-24T12:39:51;19.37;57.68
67157;SHT31;54086;50.126;8.710;2022-09-24T12:42:20;19.53;57.74
67157;SHT31;54086;50.126;8.710;2022-09-24T12:45:11;19.41;56.53
67157;SHT31;54086;50.126;8.710;2022-09-24T12:47:47;19.35;56.88
67157;SHT31;54086;50.126;8.710;2022-09-24T12:50:25;19.33;56.98
67157;SHT31;54086;50.126;8.710;2022-09-24T12:52:52;19.38;56.60
67157;SHT31;54086;50.126;8.710;2022-09-24T12:55:20;19.27;56.87
67157;SHT31;54086;50.126;8.710;2022-09-24T12:57:58;19.44;56.55
67157;SHT31;54086;50.126;8.710;2022-09-24T13:00:41;19.41;55.74
67157;SHT31;54086;50.126;8.710;2022-09-24T13:03:36;19.27;55.39
67157;SHT31;54086;50.126;8.710;2022-09-24T13:06:03;19.14;55.58
67157;SHT31;54086;50.126;8.710;2022-09-24T13:08:42;19.51;54.56
67157;SHT31;54086;50.126;8.710;2022-09-24T13:11:31;19.51;54.18
67157;SHT31;54086;50.126;8.710;2022-09-24T13:14:15;19.61;54.27
67157;SHT31;54086;50.126;8.710;2022-09-24T13:16:45;19.47;54.28
67157;SHT31;54086;50.126;8.710;2022-09-24T13:19:33;19.50;53.90
67157;SHT31;54086;50.126;8.710;2022-09-24T13:22:00;19.34;54.03
67157;SHT31;54086;50.126;8.710;2022-09-24T13:24:44;19.34;53.28
67157;SHT31;54086;50.126;8.710;2022-09-24T13:27:33;19.20;53.40
67157;SHT31;54086;50.126;8.710;2022-09-24T13:32:42;20.20;51.62
67157;SHT31;54086;50.126;8.710;2022-09-24T13:35:23;20.09;51.13
67157;SHT31;54086;50.126;8.710;2022-09-24T13:38:06;20.36;51.37
67157;SHT31;54086;50.126;8.710;2022-09-24T13:40:36;19.85;51.79
67157;SHT31;54086;50.126;8.710;2022-09-24T13:43:16;20.01;51.40
67157;SHT31;54086;50.126;8.710;2022-09-24T13:45:43;20.15;51.14
67157;SHT31;54086;50.126;8.710;2022-09-24T13:48:30;19.96;50.15
67157;SHT31;54086;50.126;8.710;2022-09-24T13:50:59;20.18;50.27
67157;SHT31;54086;50.126;8.710;2022-09-24T13:55:58;20.49;50.50
67157;SHT31;54086;50.126;8.710;2022-09-24T13:58:35;20.15;51.46
67157;SHT31;54086;50.126;8.710;2022-09-24T14:01:23;19.91;52.21
67157;SHT31;54086;50.126;8.710;2022-09-24T14:03:58;19.81;52.27
67157;SHT31;54086;50.126;8.710;2022-09-24T14:06:40;19.58;52.89
67157;SHT31;54086;50.126;8.710;2022-09-24T14:09:24;19.50;53.32
67157;SHT31;54086;50.126;8.710;2022-09-24T14:11:53;19.24;54.05
67157;SHT31;54086;50.126;8.710;2022-09-24T14:14:21;19.09;54.86
67157;SHT31;54086;50.126;8.710;2022-09-24T14:16:49;19.09;55.07
67157;SHT31;54086;50.126;8.710;2022-09-24T14:19:15;19.09;55.58
67157;SHT31;54086;50.126;8.710;2022-09-24T14:21:55;19.28;55.36
67157;SHT31;54086;50.126;8.710;2022-09-24T14:24:31;19.27;55.18
67157;SHT31;54086;50.126;8.710;2022-09-24T14:27:03;19.35;55.77
67157;SHT31;54086;50.126;8.710;2022-09-24T14:29:42;19.35;55.31
67157;SHT31;54086;50.126;8.710;2022-09-24T14:32:25;19.47;55.23
67157;SHT31;54086;50.126;8.710;2022-09-24T14:34:54;19.40;55.47
67157;SHT31;54086;50.126;8.710;2022-09-24T14:37:25;19.31;55.97
67157;SHT31;54086;50.126;8.710;2022-09-24T14:39:57;19.37;55.25
67157;SHT31;54086;50.126;8.710;2022-09-24T14:42:35;19.35;55.49
67157;SHT31;54086;50.126;8.710;2022-09-24T14:45:04;19.24;55.89
67157;SHT31;54086;50.126;8.710;2022-09-24T14:47:33;19.24;56.20
67157;SHT31;54086;50.126;8.710;2022-09-24T14:49:59;19.26;55.99
67157;SHT31;54086;50.126;8.710;2022-09-24T14:52:35;19.21;56.84
67157;SHT31;54086;50.126;8.710;2022-09-24T14:55:17;19.09;57.05
67157;SHT31;54086;50.126;8.710;2022-09-24T14:57:44;18.89;58.06
67157;SHT31;54086;50.126;8.710;2022-09-24T15:00:27;18.76;58.48
67157;SHT31;54086;50.126;8.710;2022-09-24T15:03:04;18.75;58.50
67157;SHT31;54086;50.126;8.710;2022-09-24T15:05:30;18.69;58.70
67157;SHT31;54086;50.126;8.710;2022-09-24T15:10:56;18.75;58.77
67157;SHT31;54086;50.126;8.710;2022-09-24T15:13:32;18.86;59.09
67157;SHT31;54086;50.126;8.710;2022-09-24T15:16:25;18.88;59.13
67157;SHT31;54086;50.126;8.710;2022-09-24T15:19:12;18.75;59.53
67157;SHT31;54086;50.126;8.710;2022-09-24T15:21:38;18.71;59.08
67157;SHT31;54086;50.126;8.710;2022-09-24T15:24:04;18.75;59.09
67157;SHT31;54086;50.126;8.710;2022-09-24T15:26:32;18.71;59.04
67157;SHT31;54086;50.126;8.710;2022-09-24T15:29:01;18.76;59.19
67157;SHT31;54086;50.126;8.710;2022-09-24T15:31:27;18.75;59.33
67157;SHT31;54086;50.126;8.710;2022-09-24T15:33:52;18.79;59.97
67157;SHT31;54086;50.126;8.710;2022-09-24T15:36:18;18.69;60.15
67157;SHT31;54086;50.126;8.710;2022-09-24T15:38:50;18.71;60.00
67157;SHT31;54086;50.126;8.710;2022-09-24T15:41:16;18.69;60.46
67157;SHT31;54086;50.126;8.710;2022-09-24T15:43:42;18.75;60.64
67157;SHT31;54086;50.126;8.710;2022-09-24T15:46:07;18.76;59.72
67157;SHT31;54086;50.126;8.710;2022-09-24T15:48:33;18.75;60.04
67157;SHT31;54086;50.126;8.710;2022-09-24T15:51:00;18.83;59.48
67157;SHT31;54086;50.126;8.710;2022-09-24T15:53:26;18.81;60.10
67157;SHT31;54086;50.126;8.710;2022-09-24T15:55:58;18.66;60.41
67157;SHT31;54086;50.126;8.710;2022-09-24T15:58:23;18.82;60.56
67157;SHT31;54086;50.126;8.710;2022-09-24T16:00:49;18.71;60.79
67157;SHT31;54086;50.126;8.710;2022-09-24T16:03:26;18.59;61.20
67157;SHT31;54086;50.126;8.710;2022-09-24T16:05:52;18.53;61.58
67157;SHT31;54086;50.126;8.710;2022-09-24T16:08:18;18.56;61.76
67157;SHT31;54086;50.126;8.710;2022-09-24T16:10:45;18.51;62.19
67157;SHT31;54086;50.126;8.710;2022-09-24T16:13:11;18.52;62.44
67157;SHT31;54086;50.126;8.710;2022-09-24T16:15:37;18.56;62.75
67157;SHT31;54086;50.126;8.710;2022-09-24T16:18:04;18.48;63.02
67157;SHT31;54086;50.126;8.710;2022-09-24T16:20:30;18.48;62.79
67157;SHT31;54086;50.126;8.710;2022-09-24T16:22:55;18.45;63.14
67157;SHT31;54086;50.126;8.710;2022-09-24T16:25:20;18.45;62.96
67157;SHT31;54086;50.126;8.710;2022-09-24T16:27:46;18.44;62.95
67157;SHT31;54086;50.126;8.710;2022-09-24T16:30:12;18.45;62.96
67157;SHT31;54086;50.126;8.710;2022-09-24T16:32:37;18.25;63.29
67157;SHT31;54086;50.126;8.710;2022-09-24T16:35:03;18.20;63.59
67157;SHT31;54086;50.126;8.710;2022-09-24T16:37:29;18.22;63.49
67157;SHT31;54086;50.126;8.710;2022-09-24T16:39:55;18.11;63.73
67157;SHT31;54086;50.126;8.710;2022-09-24T16:42:20;18.22;63.61
67157;SHT31;54086;50.126;8.710;2022-09-24T16:44:46;18.11;63.69
67157;SHT31;54086;50.126;8.710;2022-09-24T16:47:11;18.10;63.92
67157;SHT31;54086;50.126;8.710;2022-09-24T16:49:40;18.11;63.93
67157;SHT31;54086;50.126;8.710;2022-09-24T16:52:06;18.15;63.81
67157;SHT31;54086;50.126;8.710;2022-09-24T16:54:31;18.18;64.06
67157;SHT31;54086;50.126;8.710;2022-09-24T16:56:57;18.17;64.13
67157;SHT31;54086;50.126;8.710;2022-09-24T16:59:22;18.05;64.56
67157;SHT31;54086;50.126;8.710;2022-09-24T17:01:48;18.03;64.85
67157;SHT31;54086;50.126;8.710;2022-09-24T17:04:13;18.14;64.69
67157;SHT31;54086;50.126;8.710;2022-09-24T17:06:39;18.08;64.81
67157;SHT31;54086;50.126;8.710;2022-09-24T17:09:04;18.07;65.45
67157;SHT31;54086;50.126;8.710;2022-09-24T17:11:48;18.11;65.38
67157;SHT31;54086;50.126;8.710;2022-09-24T17:14:16;18.03;65.75
67157;SHT31;54086;50.126;8.710;2022-09-24T17:16:42;18.00;66.15
67157;SHT31;54086;50.126;8.710;2022-09-24T17:19:09;17.96;66.43
67157;SHT31;54086;50.126;8.710;2022-09-24T17:21:36;17.90;66.72
67157;SHT31;54086;50.126;8.710;2022-09-24T17:24:02;17.89;67.04
67157;SHT31;54086;50.126;8.710;2022-09-24T17:26:27;17.91;67.09
67157;SHT31;54086;50.126;8.710;2022-09-24T17:28:53;17.94;67.24